sensor_id;sensor_type;location;lat;lon;timestamp;temperature;humidity
31038;DHT22;17702;47.590;7.666;2022-12-10T00:01:55;3.00;99.90
31038;DHT22;17702;47.590;7.666;2022-12-10T00:04:20;3.10;99.90
31038;DHT22;17702;47.590;7.666;2022-12-10T00:06:46;3.10;99.90
31038;DHT22;17702;47.590;7.666;2022-12-10T00:09:14;3.20;99.90
31038;DHT22;17702;47.590;7.666;2022-12-10T00:11:40;3.10;99.90
31038;DHT22;17702;47.590;7.666;2022-12-10T00:14:06;3.10;99.90
31038;DHT22;17702;47.590;7.666;2022-12-10T00:16:34;3.20;99.90
31038;DHT22;17702;47.590;7.666;2022-12-10T00:19:00;3.30;99.90
31038;DHT22;17702;47.590;7.666;2022-12-10T00:21:27;3.30;99.90
31038;DHT22;17702;47.590;7.666;2022-12-10T00:23:53;3.20;99.90
31038;DHT22;17702;47.590;7.666;2022-12-10T00:26:19;3.20;99.90
31038;DHT22;17702;47.590;7.666;2022-12-10T00:28:45;3.20;99.90
31038;DHT22;17702;47.590;7.666;2022-12-10T00:31:12;3.20;99.90
31038;DHT22;17702;47.590;7.666;2022-12-10T00:33:38;3.20;99.90
31038;DHT22;17702;47.590;7.666;2022-12-10T00:36:04;3.20;99.90
31038;DHT22;17702;47.590;7.666;2022-12-10T00:38:30;3.20;99.90
31038;DHT22;17702;47.590;7.666;2022-12-10T00:40:56;3.30;99.90
31038;DHT22;17702;47.590;7.666;2022-12-10T00:43:21;3.30;99.90
31038;DHT22;17702;47.590;7.666;2022-12-10T00:45:47;3.20;99.90
31038;DHT22;17702;47.590;7.666;2022-12-10T00:48:12;3.20;99.90
31038;DHT22;17702;47.590;7.666;2022-12-10T00:50:37;3.20;99.90
31038;DHT22;17702;47.590;7.666;2022-12-10T00:53:03;3.30;99.90
31038;DHT22;17702;47.590;7.666;2022-12-10T00:55:28;3.20;99.90
31038;DHT22;17702;47.590;7.666;2022-12-10T00:57:54;3.20;99.90
31038;DHT22;17702;47.590;7.666;2022-12-10T01:00:19;3.20;99.90
31038;DHT22;17702;47.590;7.666;2022-12-10T01:02:45;3.20;99.90
31038;DHT22;17702;47.590;7.666;2022-12-10T01:05:10;3.20;99.90
31038;DHT22;17702;47.590;7.666;2022-12-10T01:07:36;3.20;99.90
31038;DHT22;17702;47.590;7.666;2022-12-10T01:10:01;3.20;99.90
31038;DHT22;17702;47.590;7.666;2022-12-10T01:12:27;3.20;99.90
31038;DHT22;17702;47.590;7.666;2022-12-10T01:14:53;3.20;99.90
31038;DHT22;17702;47.590;7.666;2022-12-10T01:17:18;3.30;99.90
31038;DHT22;17702;47.590;7.666;2022-12-10T01:19:46;3.20;99.90
31038;DHT22;17702;47.590;7.666;2022-12-10T01:22:11;3.10;99.90
31038;DHT22;17702;47.590;7.666;2022-12-10T01:24:37;3.20;99.90
31038;DHT22;17702;47.590;7.666;2022-12-10T01:27:02;3.20;99.90
31038;DHT22;17702;47.590;7.666;2022-12-10T01:29:28;3.20;99.90
31038;DHT22;17702;47.590;7.666;2022-12-10T01:31:54;3.30;99.90
31038;DHT22;17702;47.590;7.666;2022-12-10T01:34:20;3.30;99.90
31038;DHT22;17702;47.590;7.666;2022-12-10T01:36:48;3.30;99.90
31038;DHT22;17702;47.590;7.666;2022-12-10T01:39:14;3.20;99.90
31038;DHT22;17702;47.590;7.666;2022-12-10T01:41:42;3.20;99.90
31038;DHT22;17702;47.590;7.666;2022-12-10T01:46:34;3.20;99.90
31038;DHT22;17702;47.590;7.666;2022-12-10T01:49:01;3.30;99.90
31038;DHT22;17702;47.590;7.666;2022-12-10T01:51:28;3.20;99.90
31038;DHT22;17702;47.590;7.666;2022-12-10T01:53:54;3.20;99.90
31038;DHT22;17702;47.590;7.666;2022-12-10T01:56:20;3.20;99.90
31038;DHT22;17702;47.590;7.666;2022-12-10T01:58:46;3.30;99.90
31038;DHT22;17702;47.590;7.666;2022-12-10T02:01:32;3.20;99.90
31038;DHT22;17702;47.590;7.666;2022-12-10T02:06:54;3.30;99.90
31038;DHT22;17702;47.590;7.666;2022-12-10T02:09:40;3.20;99.90
31038;DHT22;17702;47.590;7.666;2022-12-10T02:12:15;3.20;99.90
31038;DHT22;17702;47.590;7.666;2022-12-10T02:14:57;3.20;99.90
31038;DHT22;17702;47.590;7.666;2022-12-10T02:17:25;3.20;99.90
31038;DHT22;17702;47.590;7.666;2022-12-10T02:20:08;3.20;99.90
31038;DHT22;17702;47.590;7.666;2022-12-10T02:22:38;3.20;99.90
31038;DHT22;17702;47.590;7.666;2022-12-10T02:25:04;3.30;99.90
31038;DHT22;17702;47.590;7.666;2022-12-10T02:30:16;3.30;99.90
31038;DHT22;17702;47.590;7.666;2022-12-10T02:32:42;3.30;99.90
31038;DHT22;17702;47.590;7.666;2022-12-10T02:35:12;3.30;99.90
31038;DHT22;17702;47.590;7.666;2022-12-10T02:37:40;3.20;99.90
31038;DHT22;17702;47.590;7.666;2022-12-10T02:40:11;3.20;99.90
31038;DHT22;17702;47.590;7.666;2022-12-10T02:42:39;3.20;99.90
31038;DHT22;17702;47.590;7.666;2022-12-10T02:45:07;3.20;99.90
31038;DHT22;17702;47.590;7.666;2022-12-10T02:47:33;3.20;99.90
31038;DHT22;17702;47.590;7.666;2022-12-10T02:49:59;3.30;99.90
31038;DHT22;17702;47.590;7.666;2022-12-10T02:52:25;3.20;99.90
31038;DHT22;17702;47.590;7.666;2022-12-10T02:54:50;3.20;99.90
31038;DHT22;17702;47.590;7.666;2022-12-10T03:02:55;3.30;99.90
31038;DHT22;17702;47.590;7.666;2022-12-10T03:05:20;3.30;99.90
31038;DHT22;17702;47.590;7.666;2022-12-10T03:07:49;3.20;99.90
31038;DHT22;17702;47.590;7.666;2022-12-10T03:10:23;3.20;99.90
31038;DHT22;17702;47.590;7.666;2022-12-10T03:12:51;3.30;99.90
31038;DHT22;17702;47.590;7.666;2022-12-10T03:15:20;3.20;99.90
31038;DHT22;17702;47.590;7.666;2022-12-10T03:17:46;3.20;99.90
31038;DHT22;17702;47.590;7.666;2022-12-10T03:20:13;3.20;99.90
31038;DHT22;17702;47.590;7.666;2022-12-10T03:22:39;3.20;99.90
31038;DHT22;17702;47.590;7.666;2022-12-10T03:25:06;3.30;99.90
31038;DHT22;17702;47.590;7.666;2022-12-10T03:27:32;3.30;99.90
31038;DHT22;17702;47.590;7.666;2022-12-10T03:29:58;3.30;99.90
31038;DHT22;17702;47.590;7.666;2022-12-10T03:32:25;3.30;99.90
31038;DHT22;17702;47.590;7.666;2022-12-10T03:34:51;3.20;99.90
31038;DHT22;17702;47.590;7.666;2022-12-10T03:37:17;3.20;99.90
31038;DHT22;17702;47.590;7.666;2022-12-10T03:39:43;3.20;99.90
31038;DHT22;17702;47.590;7.666;2022-12-10T03:42:08;3.30;99.90
31038;DHT22;17702;47.590;7.666;2022-12-10T03:44:34;3.30;99.90
31038;DHT22;17702;47.590;7.666;2022-12-10T03:47:00;3.20;99.90
31038;DHT22;17702;47.590;7.666;2022-12-10T03:49:26;3.20;99.90
31038;DHT22;17702;47.590;7.666;2022-12-10T03:51:52;3.20;99.90
31038;DHT22;17702;47.590;7.666;2022-12-10T03:54:17;3.20;99.90
31038;DHT22;17702;47.590;7.666;2022-12-10T03:56:43;3.20;99.90
31038;DHT22;17702;47.590;7.666;2022-12-10T03:59:08;3.20;99.90
31038;DHT22;17702;47.590;7.666;2022-12-10T04:01:34;3.20;99.90
31038;DHT22;17702;47.590;7.666;2022-12-10T04:03:59;3.20;99.90
31038;DHT22;17702;47.590;7.666;2022-12-10T04:06:25;3.20;99.90
31038;DHT22;17702;47.590;7.666;2022-12-10T04:08:51;3.20;99.90
31038;DHT22;17702;47.590;7.666;2022-12-10T04:11:17;3.20;99.90
31038;DHT22;17702;47.590;7.666;2022-12-10T04:13:42;3.20;99.90
31038;DHT22;17702;47.590;7.666;2022-12-10T04:16:27;3.20;99.90
31038;DHT22;17702;47.590;7.666;2022-12-10T04:18:54;3.20;99.90
31038;DHT22;17702;47.590;7.666;2022-12-10T04:21:19;3.20;99.90
31038;DHT22;17702;47.590;7.666;2022-12-10T04:24:04;3.20;99.90
31038;DHT22;17702;47.590;7.666;2022-12-10T04:26:48;3.20;99.90
31038;DHT22;17702;47.590;7.666;2022-12-10T04:29:24;3.10;99.90
31038;DHT22;17702;47.590;7.666;2022-12-10T04:31:50;3.10;99.90
31038;DHT22;17702;47.590;7.666;2022-12-10T04:34:16;3.20;99.90
31038;DHT22;17702;47.590;7.666;2022-12-10T04:36:41;3.10;99.90
31038;DHT22;17702;47.590;7.666;2022-12-10T04:39:07;3.20;99.90
31038;DHT22;17702;47.590;7.666;2022-12-10T04:41:33;3.20;99.90
31038;DHT22;17702;47.590;7.666;2022-12-10T04:43:58;3.10;99.90
31038;DHT22;17702;47.590;7.666;2022-12-10T04:46:24;3.10;99.90
31038;DHT22;17702;47.590;7.666;2022-12-10T04:48:49;3.10;99.90
31038;DHT22;17702;47.590;7.666;2022-12-10T04:51:15;3.20;99.90
31038;DHT22;17702;47.590;7.666;2022-12-10T04:53:40;3.20;99.90
31038;DHT22;17702;47.590;7.666;2022-12-10T04:56:06;3.20;99.90
31038;DHT22;17702;47.590;7.666;2022-12-10T04:58:32;3.20;99.90
31038;DHT22;17702;47.590;7.666;2022-12-10T05:01:04;3.20;99.90
31038;DHT22;17702;47.590;7.666;2022-12-10T05:03:31;3.20;99.90
31038;DHT22;17702;47.590;7.666;2022-12-10T05:06:03;3.20;99.90
31038;DHT22;17702;47.590;7.666;2022-12-10T05:08:29;3.10;99.90
31038;DHT22;17702;47.590;7.666;2022-12-10T05:10:55;3.20;99.90
31038;DHT22;17702;47.590;7.666;2022-12-10T05:13:20;3.20;99.90
31038;DHT22;17702;47.590;7.666;2022-12-10T05:15:46;3.20;99.90
31038;DHT22;17702;47.590;7.666;2022-12-10T05:18:11;3.20;99.90
31038;DHT22;17702;47.590;7.666;2022-12-10T05:20:37;3.20;99.90
31038;DHT22;17702;47.590;7.666;2022-12-10T05:23:02;3.20;99.90
31038;DHT22;17702;47.590;7.666;2022-12-10T05:25:46;3.20;99.90
31038;DHT22;17702;47.590;7.666;2022-12-10T05:28:19;3.20;99.90
31038;DHT22;17702;47.590;7.666;2022-12-10T05:30:44;3.10;99.90
31038;DHT22;17702;47.590;7.666;2022-12-10T05:33:10;3.20;99.90
31038;DHT22;17702;47.590;7.666;2022-12-10T05:35:35;3.30;99.90
31038;DHT22;17702;47.590;7.666;2022-12-10T05:38:01;3.20;99.90
31038;DHT22;17702;47.590;7.666;2022-12-10T05:40:26;3.20;99.90
31038;DHT22;17702;47.590;7.666;2022-12-10T05:42:52;3.20;99.90
31038;DHT22;17702;47.590;7.666;2022-12-10T05:45:17;3.20;99.90
31038;DHT22;17702;47.590;7.666;2022-12-10T05:47:43;3.10;99.90
31038;DHT22;17702;47.590;7.666;2022-12-10T05:50:08;3.20;99.90
31038;DHT22;17702;47.590;7.666;2022-12-10T05:52:34;3.10;99.90
31038;DHT22;17702;47.590;7.666;2022-12-10T05:54:59;3.20;99.90
31038;DHT22;17702;47.590;7.666;2022-12-10T05:57:25;3.10;99.90
31038;DHT22;17702;47.590;7.666;2022-12-10T05:59:50;3.20;99.90
31038;DHT22;17702;47.590;7.666;2022-12-10T06:02:16;3.20;99.90
31038;DHT22;17702;47.590;7.666;2022-12-10T06:04:41;3.20;99.90
31038;DHT22;17702;47.590;7.666;2022-12-10T06:07:07;3.20;99.90
31038;DHT22;17702;47.590;7.666;2022-12-10T06:09:32;3.20;99.90
31038;DHT22;17702;47.590;7.666;2022-12-10T06:11:58;3.20;99.90
31038;DHT22;17702;47.590;7.666;2022-12-10T06:14:23;3.20;99.90
31038;DHT22;17702;47.590;7.666;2022-12-10T06:16:49;3.10;99.90
31038;DHT22;17702;47.590;7.666;2022-12-10T06:19:14;3.10;99.90
31038;DHT22;17702;47.590;7.666;2022-12-10T06:21:40;3.20;99.90
31038;DHT22;17702;47.590;7.666;2022-12-10T06:24:05;3.20;99.90
31038;DHT22;17702;47.590;7.666;2022-12-10T06:26:31;3.20;99.90
31038;DHT22;17702;47.590;7.666;2022-12-10T06:28:56;3.30;99.90
31038;DHT22;17702;47.590;7.666;2022-12-10T06:31:22;3.30;99.90
31038;DHT22;17702;47.590;7.666;2022-12-10T06:33:47;3.20;99.90
31038;DHT22;17702;47.590;7.666;2022-12-10T06:36:14;3.30;99.90
31038;DHT22;17702;47.590;7.666;2022-12-10T06:38:40;3.30;99.90
31038;DHT22;17702;47.590;7.666;2022-12-10T06:41:06;3.30;99.90
31038;DHT22;17702;47.590;7.666;2022-12-10T06:43:32;3.30;99.90
31038;DHT22;17702;47.590;7.666;2022-12-10T06:45:58;3.20;99.90
31038;DHT22;17702;47.590;7.666;2022-12-10T06:48:23;3.30;99.90
31038;DHT22;17702;47.590;7.666;2022-12-10T06:50:49;3.30;99.90
31038;DHT22;17702;47.590;7.666;2022-12-10T06:53:14;3.30;99.90
31038;DHT22;17702;47.590;7.666;2022-12-10T06:55:40;3.30;99.90
31038;DHT22;17702;47.590;7.666;2022-12-10T06:58:05;3.30;99.90
31038;DHT22;17702;47.590;7.666;2022-12-10T07:00:31;3.30;99.90
31038;DHT22;17702;47.590;7.666;2022-12-10T07:02:57;3.30;99.90
31038;DHT22;17702;47.590;7.666;2022-12-10T07:05:22;3.30;99.90
31038;DHT22;17702;47.590;7.666;2022-12-10T07:07:48;3.20;99.90
31038;DHT22;17702;47.590;7.666;2022-12-10T07:10:13;3.20;99.90
31038;DHT22;17702;47.590;7.666;2022-12-10T07:12:39;3.20;99.90
31038;DHT22;17702;47.590;7.666;2022-12-10T07:15:04;3.20;99.90
31038;DHT22;17702;47.590;7.666;2022-12-10T07:17:30;3.20;99.90
31038;DHT22;17702;47.590;7.666;2022-12-10T07:19:55;3.20;99.90
31038;DHT22;17702;47.590;7.666;2022-12-10T07:22:21;3.20;99.90
31038;DHT22;17702;47.590;7.666;2022-12-10T07:24:47;3.20;99.90
31038;DHT22;17702;47.590;7.666;2022-12-10T07:27:13;3.10;99.90
31038;DHT22;17702;47.590;7.666;2022-12-10T07:29:38;3.10;99.90
31038;DHT22;17702;47.590;7.666;2022-12-10T07:32:04;3.10;99.90
31038;DHT22;17702;47.590;7.666;2022-12-10T07:34:29;3.20;99.90
31038;DHT22;17702;47.590;7.666;2022-12-10T07:36:55;3.10;99.90
31038;DHT22;17702;47.590;7.666;2022-12-10T07:39:20;3.10;99.90
31038;DHT22;17702;47.590;7.666;2022-12-10T07:41:49;3.20;99.90
31038;DHT22;17702;47.590;7.666;2022-12-10T07:44:16;3.20;99.90
31038;DHT22;17702;47.590;7.666;2022-12-10T07:46:43;3.20;99.90
31038;DHT22;17702;47.590;7.666;2022-12-10T07:49:09;3.30;99.90
31038;DHT22;17702;47.590;7.666;2022-12-10T07:51:35;3.30;99.90
31038;DHT22;17702;47.590;7.666;2022-12-10T07:54:00;3.20;99.90
31038;DHT22;17702;47.590;7.666;2022-12-10T07:56:26;3.30;99.90
31038;DHT22;17702;47.590;7.666;2022-12-10T07:58:51;3.40;99.90
31038;DHT22;17702;47.590;7.666;2022-12-10T08:01:19;3.30;99.90
31038;DHT22;17702;47.590;7.666;2022-12-10T08:03:44;3.30;99.90
31038;DHT22;17702;47.590;7.666;2022-12-10T08:06:11;3.30;99.90
31038;DHT22;17702;47.590;7.666;2022-12-10T08:08:37;3.30;99.90
31038;DHT22;17702;47.590;7.666;2022-12-10T08:11:03;3.30;99.90
31038;DHT22;17702;47.590;7.666;2022-12-10T08:13:29;3.30;99.90
31038;DHT22;17702;47.590;7.666;2022-12-10T08:15:59;3.30;99.90
31038;DHT22;17702;47.590;7.666;2022-12-10T08:18:25;3.30;99.90
31038;DHT22;17702;47.590;7.666;2022-12-10T08:20:50;3.30;99.90
31038;DHT22;17702;47.590;7.666;2022-12-10T08:23:16;3.30;99.90
31038;DHT22;17702;47.590;7.666;2022-12-10T08:25:41;3.20;99.90
31038;DHT22;17702;47.590;7.666;2022-12-10T08:28:07;3.20;99.90
31038;DHT22;17702;47.590;7.666;2022-12-10T08:30:34;3.30;99.90
31038;DHT22;17702;47.590;7.666;2022-12-10T08:32:59;3.30;99.90
31038;DHT22;17702;47.590;7.666;2022-12-10T08:35:25;3.20;99.90
31038;DHT22;17702;47.590;7.666;2022-12-10T08:37:51;3.20;99.90
31038;DHT22;17702;47.590;7.666;2022-12-10T08:40:16;3.20;99.90
31038;DHT22;17702;47.590;7.666;2022-12-10T08:42:41;3.30;99.90
31038;DHT22;17702;47.590;7.666;2022-12-10T08:45:07;3.30;99.90
31038;DHT22;17702;47.590;7.666;2022-12-10T08:47:33;3.30;99.90
31038;DHT22;17702;47.590;7.666;2022-12-10T08:49:58;3.30;99.90
31038;DHT22;17702;47.590;7.666;2022-12-10T08:52:24;3.30;99.90
31038;DHT22;17702;47.590;7.666;2022-12-10T08:54:49;3.40;99.90
31038;DHT22;17702;47.590;7.666;2022-12-10T08:57:15;3.40;99.90
31038;DHT22;17702;47.590;7.666;2022-12-10T08:59:42;4.70;99.90
31038;DHT22;17702;47.590;7.666;2022-12-10T09:02:09;6.80;99.90
31038;DHT22;17702;47.590;7.666;2022-12-10T09:04:35;6.60;97.80
31038;DHT22;17702;47.590;7.666;2022-12-10T09:07:01;6.00;98.60
31038;DHT22;17702;47.590;7.666;2022-12-10T09:09:27;5.50;99.90
31038;DHT22;17702;47.590;7.666;2022-12-10T09:11:52;5.20;99.90
31038;DHT22;17702;47.590;7.666;2022-12-10T09:14:17;5.00;99.90
31038;DHT22;17702;47.590;7.666;2022-12-10T09:16:43;4.80;99.90
31038;DHT22;17702;47.590;7.666;2022-12-10T09:19:09;4.60;99.90
31038;DHT22;17702;47.590;7.666;2022-12-10T09:21:34;4.40;99.90
31038;DHT22;17702;47.590;7.666;2022-12-10T09:24:00;4.30;99.90
31038;DHT22;17702;47.590;7.666;2022-12-10T09:26:26;4.20;99.90
31038;DHT22;17702;47.590;7.666;2022-12-10T09:28:51;4.00;99.90
31038;DHT22;17702;47.590;7.666;2022-12-10T09:31:18;4.00;99.90
31038;DHT22;17702;47.590;7.666;2022-12-10T09:33:44;3.90;99.90
31038;DHT22;17702;47.590;7.666;2022-12-10T09:36:10;3.90;99.90
31038;DHT22;17702;47.590;7.666;2022-12-10T09:38:36;3.80;99.90
31038;DHT22;17702;47.590;7.666;2022-12-10T09:41:03;3.90;99.90
31038;DHT22;17702;47.590;7.666;2022-12-10T09:48:31;3.80;99.90
31038;DHT22;17702;47.590;7.666;2022-12-10T09:51:19;3.80;99.90
31038;DHT22;17702;47.590;7.666;2022-12-10T09:53:45;3.80;99.90
31038;DHT22;17702;47.590;7.666;2022-12-10T09:56:19;3.80;99.90
31038;DHT22;17702;47.590;7.666;2022-12-10T09:58:46;3.90;99.90
31038;DHT22;17702;47.590;7.666;2022-12-10T10:01:12;3.80;99.90
31038;DHT22;17702;47.590;7.666;2022-12-10T10:03:40;3.80;99.90
31038;DHT22;17702;47.590;7.666;2022-12-10T10:06:08;3.80;99.90
31038;DHT22;17702;47.590;7.666;2022-12-10T10:11:14;3.80;99.90
31038;DHT22;17702;47.590;7.666;2022-12-10T10:13:43;3.80;99.90
31038;DHT22;17702;47.590;7.666;2022-12-10T10:18:41;3.80;99.90
31038;DHT22;17702;47.590;7.666;2022-12-10T10:21:20;3.80;99.90
31038;DHT22;17702;47.590;7.666;2022-12-10T10:23:46;3.80;99.90
31038;DHT22;17702;47.590;7.666;2022-12-10T10:26:12;3.80;99.90
31038;DHT22;17702;47.590;7.666;2022-12-10T10:28:38;3.90;99.90
31038;DHT22;17702;47.590;7.666;2022-12-10T10:31:07;3.80;99.90
31038;DHT22;17702;47.590;7.666;2022-12-10T10:33:47;3.80;99.90
31038;DHT22;17702;47.590;7.666;2022-12-10T10:36:14;3.90;99.90
31038;DHT22;17702;47.590;7.666;2022-12-10T10:38:39;3.80;99.90
31038;DHT22;17702;47.590;7.666;2022-12-10T10:41:12;3.80;99.90
31038;DHT22;17702;47.590;7.666;2022-12-10T10:43:39;3.80;99.90
31038;DHT22;17702;47.590;7.666;2022-12-10T10:46:13;3.80;99.90
31038;DHT22;17702;47.590;7.666;2022-12-10T10:48:39;3.80;99.90
31038;DHT22;17702;47.590;7.666;2022-12-10T10:51:06;3.80;99.90
31038;DHT22;17702;47.590;7.666;2022-12-10T10:53:35;3.80;99.90
31038;DHT22;17702;47.590;7.666;2022-12-10T10:58:35;3.90;99.90
31038;DHT22;17702;47.590;7.666;2022-12-10T11:01:06;3.90;99.90
31038;DHT22;17702;47.590;7.666;2022-12-10T11:03:32;3.90;99.90
31038;DHT22;17702;47.590;7.666;2022-12-10T11:05:58;3.80;99.90
31038;DHT22;17702;47.590;7.666;2022-12-10T11:08:25;3.80;99.90
31038;DHT22;17702;47.590;7.666;2022-12-10T11:11:12;3.80;99.90
31038;DHT22;17702;47.590;7.666;2022-12-10T11:13:39;3.80;99.90
31038;DHT22;17702;47.590;7.666;2022-12-10T11:18:37;3.70;99.90
31038;DHT22;17702;47.590;7.666;2022-12-10T11:21:05;3.80;99.90
31038;DHT22;17702;47.590;7.666;2022-12-10T11:23:32;3.80;99.90
31038;DHT22;17702;47.590;7.666;2022-12-10T11:36:38;3.80;99.90
31038;DHT22;17702;47.590;7.666;2022-12-10T11:39:24;3.80;99.90
31038;DHT22;17702;47.590;7.666;2022-12-10T11:41:55;3.80;99.90
31038;DHT22;17702;47.590;7.666;2022-12-10T11:44:29;3.80;99.90
31038;DHT22;17702;47.590;7.666;2022-12-10T11:57:06;3.90;99.90
31038;DHT22;17702;47.590;7.666;2022-12-10T12:02:15;3.90;99.90
31038;DHT22;17702;47.590;7.666;2022-12-10T12:15:02;3.90;99.90
31038;DHT22;17702;47.590;7.666;2022-12-10T12:17:30;3.90;99.90
31038;DHT22;17702;47.590;7.666;2022-12-10T12:19:58;3.90;99.90
31038;DHT22;17702;47.590;7.666;2022-12-10T12:22:29;3.80;99.90
31038;DHT22;17702;47.590;7.666;2022-12-10T12:25:00;3.80;99.90
31038;DHT22;17702;47.590;7.666;2022-12-10T12:27:34;3.80;99.90
31038;DHT22;17702;47.590;7.666;2022-12-10T12:30:05;3.80;99.90
31038;DHT22;17702;47.590;7.666;2022-12-10T12:32:44;3.80;99.90
31038;DHT22;17702;47.590;7.666;2022-12-10T12:35:17;3.80;99.90
31038;DHT22;17702;47.590;7.666;2022-12-10T12:38:30;3.90;99.90
31038;DHT22;17702;47.590;7.666;2022-12-10T12:40:34;3.90;99.90
31038;DHT22;17702;47.590;7.666;2022-12-10T12:45:40;3.80;99.90
31038;DHT22;17702;47.590;7.666;2022-12-10T12:50:42;3.80;99.90
31038;DHT22;17702;47.590;7.666;2022-12-10T12:53:09;3.80;99.90
31038;DHT22;17702;47.590;7.666;2022-12-10T13:00:40;3.90;99.90
31038;DHT22;17702;47.590;7.666;2022-12-10T13:03:17;3.90;99.90
31038;DHT22;17702;47.590;7.666;2022-12-10T13:05:45;3.90;99.90
31038;DHT22;17702;47.590;7.666;2022-12-10T13:10:52;3.80;99.90
31038;DHT22;17702;47.590;7.666;2022-12-10T13:15:47;3.80;99.90
31038;DHT22;17702;47.590;7.666;2022-12-10T13:23:04;3.80;99.90
31038;DHT22;17702;47.590;7.666;2022-12-10T13:25:38;3.90;99.90
31038;DHT22;17702;47.590;7.666;2022-12-10T13:28:21;3.90;99.90
31038;DHT22;17702;47.590;7.666;2022-12-10T13:33:44;3.80;99.90
31038;DHT22;17702;47.590;7.666;2022-12-10T13:36:10;3.80;99.90
31038;DHT22;17702;47.590;7.666;2022-12-10T13:38:40;3.80;99.90
31038;DHT22;17702;47.590;7.666;2022-12-10T13:41:06;3.80;99.90
31038;DHT22;17702;47.590;7.666;2022-12-10T13:43:51;3.70;99.90
31038;DHT22;17702;47.590;7.666;2022-12-10T13:46:58;3.70;99.90
31038;DHT22;17702;47.590;7.666;2022-12-10T13:49:23;3.80;99.90
31038;DHT22;17702;47.590;7.666;2022-12-10T13:51:59;3.70;99.90
31038;DHT22;17702;47.590;7.666;2022-12-10T13:54:29;3.70;99.90
31038;DHT22;17702;47.590;7.666;2022-12-10T13:59:43;3.80;99.90
31038;DHT22;17702;47.590;7.666;2022-12-10T14:05:19;3.70;99.90
31038;DHT22;17702;47.590;7.666;2022-12-10T14:07:48;3.70;99.90
31038;DHT22;17702;47.590;7.666;2022-12-10T14:10:16;3.70;99.90
31038;DHT22;17702;47.590;7.666;2022-12-10T14:12:42;3.70;99.90
31038;DHT22;17702;47.590;7.666;2022-12-10T14:15:43;3.80;99.90
31038;DHT22;17702;47.590;7.666;2022-12-10T14:18:14;3.70;99.90
31038;DHT22;17702;47.590;7.666;2022-12-10T14:20:42;3.80;99.90
31038;DHT22;17702;47.590;7.666;2022-12-10T14:23:23;3.80;99.90
31038;DHT22;17702;47.590;7.666;2022-12-10T14:25:58;3.70;99.90
31038;DHT22;17702;47.590;7.666;2022-12-10T14:28:23;3.80;99.90
31038;DHT22;17702;47.590;7.666;2022-12-10T14:30:49;3.80;99.90
31038;DHT22;17702;47.590;7.666;2022-12-10T14:33:16;3.80;99.90
31038;DHT22;17702;47.590;7.666;2022-12-10T14:35:43;3.80;99.90
31038;DHT22;17702;47.590;7.666;2022-12-10T14:38:16;3.70;99.90
31038;DHT22;17702;47.590;7.666;2022-12-10T14:40:42;3.70;99.90
31038;DHT22;17702;47.590;7.666;2022-12-10T14:43:15;3.70;99.90
31038;DHT22;17702;47.590;7.666;2022-12-10T14:45:44;3.70;99.90
31038;DHT22;17702;47.590;7.666;2022-12-10T14:48:14;3.70;99.90
31038;DHT22;17702;47.590;7.666;2022-12-10T14:50:41;3.70;99.90
31038;DHT22;17702;47.590;7.666;2022-12-10T14:53:17;3.70;99.90
31038;DHT22;17702;47.590;7.666;2022-12-10T14:55:44;3.70;99.90
31038;DHT22;17702;47.590;7.666;2022-12-10T14:58:13;3.80;99.90
31038;DHT22;17702;47.590;7.666;2022-12-10T15:00:41;3.80;99.90
31038;DHT22;17702;47.590;7.666;2022-12-10T15:03:17;3.80;99.90
31038;DHT22;17702;47.590;7.666;2022-12-10T15:05:53;3.70;99.90
31038;DHT22;17702;47.590;7.666;2022-12-10T15:08:19;3.70;99.90
31038;DHT22;17702;47.590;7.666;2022-12-10T15:10:45;3.70;99.90
31038;DHT22;17702;47.590;7.666;2022-12-10T15:13:17;3.70;99.90
31038;DHT22;17702;47.590;7.666;2022-12-10T15:15:43;3.70;99.90
31038;DHT22;17702;47.590;7.666;2022-12-10T15:18:17;3.60;99.90
31038;DHT22;17702;47.590;7.666;2022-12-10T15:23:30;3.70;99.90
31038;DHT22;17702;47.590;7.666;2022-12-10T15:30:56;3.60;99.90
31038;DHT22;17702;47.590;7.666;2022-12-10T15:33:34;3.60;99.90
31038;DHT22;17702;47.590;7.666;2022-12-10T15:36:01;3.60;99.90
31038;DHT22;17702;47.590;7.666;2022-12-10T15:38:27;3.60;99.90
31038;DHT22;17702;47.590;7.666;2022-12-10T15:40:57;3.60;99.90
31038;DHT22;17702;47.590;7.666;2022-12-10T15:43:29;3.60;99.90
31038;DHT22;17702;47.590;7.666;2022-12-10T15:45:55;3.60;99.90
31038;DHT22;17702;47.590;7.666;2022-12-10T15:48:21;3.60;99.90
31038;DHT22;17702;47.590;7.666;2022-12-10T15:50:47;3.60;99.90
31038;DHT22;17702;47.590;7.666;2022-12-10T15:53:14;3.60;99.90
31038;DHT22;17702;47.590;7.666;2022-12-10T15:55:41;3.60;99.90
31038;DHT22;17702;47.590;7.666;2022-12-10T15:58:13;3.60;99.90
31038;DHT22;17702;47.590;7.666;2022-12-10T16:00:39;3.60;99.90
31038;DHT22;17702;47.590;7.666;2022-12-10T16:03:17;3.60;99.90
31038;DHT22;17702;47.590;7.666;2022-12-10T16:05:44;3.70;99.90
31038;DHT22;17702;47.590;7.666;2022-12-10T16:08:21;3.60;99.90
31038;DHT22;17702;47.590;7.666;2022-12-10T16:10:47;3.60;99.90
31038;DHT22;17702;47.590;7.666;2022-12-10T16:13:15;3.50;99.90
31038;DHT22;17702;47.590;7.666;2022-12-10T16:18:39;3.50;99.90
31038;DHT22;17702;47.590;7.666;2022-12-10T16:21:05;3.50;99.90
31038;DHT22;17702;47.590;7.666;2022-12-10T16:23:33;3.50;99.90
31038;DHT22;17702;47.590;7.666;2022-12-10T16:25:59;3.50;99.90
31038;DHT22;17702;47.590;7.666;2022-12-10T16:28:25;3.60;99.90
31038;DHT22;17702;47.590;7.666;2022-12-10T16:30:52;3.60;99.90
31038;DHT22;17702;47.590;7.666;2022-12-10T16:33:17;3.60;99.90
31038;DHT22;17702;47.590;7.666;2022-12-10T16:35:44;3.60;99.90
31038;DHT22;17702;47.590;7.666;2022-12-10T16:38:09;3.70;99.90
31038;DHT22;17702;47.590;7.666;2022-12-10T16:40:35;3.70;99.90
31038;DHT22;17702;47.590;7.666;2022-12-10T16:43:00;3.60;99.90
31038;DHT22;17702;47.590;7.666;2022-12-10T16:45:36;3.60;99.90
31038;DHT22;17702;47.590;7.666;2022-12-10T16:48:02;3.60;99.90
31038;DHT22;17702;47.590;7.666;2022-12-10T16:50:28;3.60;99.90
31038;DHT22;17702;47.590;7.666;2022-12-10T16:52:54;3.60;99.90
31038;DHT22;17702;47.590;7.666;2022-12-10T16:55:20;3.60;99.90
31038;DHT22;17702;47.590;7.666;2022-12-10T16:57:46;3.60;99.90
31038;DHT22;17702;47.590;7.666;2022-12-10T17:00:13;3.60;99.90
31038;DHT22;17702;47.590;7.666;2022-12-10T17:02:40;3.60;99.90
31038;DHT22;17702;47.590;7.666;2022-12-10T17:05:10;3.60;99.90
31038;DHT22;17702;47.590;7.666;2022-12-10T17:07:37;3.60;99.90
31038;DHT22;17702;47.590;7.666;2022-12-10T17:10:03;3.60;99.90
31038;DHT22;17702;47.590;7.666;2022-12-10T17:12:28;3.60;99.90
31038;DHT22;17702;47.590;7.666;2022-12-10T17:14:55;3.60;99.90
31038;DHT22;17702;47.590;7.666;2022-12-10T17:17:21;3.50;99.90
31038;DHT22;17702;47.590;7.666;2022-12-10T17:19:47;3.50;99.90
31038;DHT22;17702;47.590;7.666;2022-12-10T17:22:12;3.50;99.90
31038;DHT22;17702;47.590;7.666;2022-12-10T17:24:38;3.50;99.90
31038;DHT22;17702;47.590;7.666;2022-12-10T17:27:07;3.50;99.90
31038;DHT22;17702;47.590;7.666;2022-12-10T17:29:36;3.50;99.90
31038;DHT22;17702;47.590;7.666;2022-12-10T17:32:03;3.50;99.90